sensor_id;sensor_type;location;lat;lon;timestamp;P1;durP1;ratioP1;P2;durP2;ratioP2
17340;SDS011;8788;49.930;8.660;2023-04-09T00:00:10;3.45;;;2.70;;
17340;SDS011;8788;49.930;8.660;2023-04-09T00:02:38;3.50;;;2.65;;
17340;SDS011;8788;49.930;8.660;2023-04-09T00:05:07;17.52;;;12.95;;
17340;SDS011;8788;49.930;8.660;2023-04-09T00:07:34;17.15;;;12.13;;
17340;SDS011;8788;49.930;8.660;2023-04-09T00:10:01;6.70;;;5.38;;
17340;SDS011;8788;49.930;8.660;2023-04-09T00:12:28;4.18;;;3.78;;
17340;SDS011;8788;49.930;8.660;2023-04-09T00:14:55;4.68;;;3.08;;
17340;SDS011;8788;49.930;8.660;2023-04-09T00:17:23;4.35;;;3.33;;
17340;SDS011;8788;49.930;8.660;2023-04-09T00:19:50;3.22;;;2.70;;
17340;SDS011;8788;49.930;8.660;2023-04-09T00:22:18;4.88;;;3.60;;
17340;SDS011;8788;49.930;8.660;2023-04-09T00:24:45;5.43;;;3.30;;
17340;SDS011;8788;49.930;8.660;2023-04-09T00:27:12;3.78;;;3.17;;
17340;SDS011;8788;49.930;8.660;2023-04-09T00:29:40;3.20;;;2.90;;
17340;SDS011;8788;49.930;8.660;2023-04-09T00:32:07;3.80;;;3.17;;
17340;SDS011;8788;49.930;8.660;2023-04-09T00:34:34;3.10;;;2.50;;
17340;SDS011;8788;49.930;8.660;2023-04-09T00:37:01;2.42;;;2.10;;
17340;SDS011;8788;49.930;8.660;2023-04-09T00:39:29;3.78;;;2.83;;
17340;SDS011;8788;49.930;8.660;2023-04-09T00:41:56;5.40;;;3.95;;
17340;SDS011;8788;49.930;8.660;2023-04-09T00:44:24;4.25;;;3.25;;
17340;SDS011;8788;49.930;8.660;2023-04-09T00:46:51;3.67;;;3.38;;
17340;SDS011;8788;49.930;8.660;2023-04-09T00:49:19;5.63;;;3.90;;
17340;SDS011;8788;49.930;8.660;2023-04-09T00:51:49;5.03;;;3.90;;
17340;SDS011;8788;49.930;8.660;2023-04-09T00:54:16;4.82;;;3.22;;
17340;SDS011;8788;49.930;8.660;2023-04-09T00:56:45;3.75;;;3.20;;
17340;SDS011;8788;49.930;8.660;2023-04-09T00:59:12;4.93;;;4.20;;
17340;SDS011;8788;49.930;8.660;2023-04-09T01:01:40;5.38;;;4.53;;
17340;SDS011;8788;49.930;8.660;2023-04-09T01:04:07;6.15;;;4.13;;
17340;SDS011;8788;49.930;8.660;2023-04-09T01:06:37;5.07;;;4.32;;
17340;SDS011;8788;49.930;8.660;2023-04-09T01:09:10;4.38;;;3.97;;
17340;SDS011;8788;49.930;8.660;2023-04-09T01:11:45;5.53;;;3.30;;
17340;SDS011;8788;49.930;8.660;2023-04-09T01:14:20;5.72;;;4.55;;
17340;SDS011;8788;49.930;8.660;2023-04-09T01:16:56;6.43;;;4.97;;
17340;SDS011;8788;49.930;8.660;2023-04-09T01:19:34;7.60;;;4.60;;
17340;SDS011;8788;49.930;8.660;2023-04-09T01:22:13;4.32;;;3.78;;
17340;SDS011;8788;49.930;8.660;2023-04-09T01:25:01;4.10;;;3.13;;
17340;SDS011;8788;49.930;8.660;2023-04-09T01:27:43;3.92;;;3.53;;
17340;SDS011;8788;49.930;8.660;2023-04-09T01:30:22;4.20;;;3.00;;
17340;SDS011;8788;49.930;8.660;2023-04-09T01:32:51;5.90;;;3.72;;
17340;SDS011;8788;49.930;8.660;2023-04-09T01:35:19;3.83;;;3.40;;
17340;SDS011;8788;49.930;8.660;2023-04-09T01:37:47;4.90;;;3.65;;
17340;SDS011;8788;49.930;8.660;2023-04-09T01:40:15;4.80;;;4.13;;
17340;SDS011;8788;49.930;8.660;2023-04-09T01:42:42;4.45;;;3.67;;
17340;SDS011;8788;49.930;8.660;2023-04-09T01:45:11;5.50;;;3.90;;
17340;SDS011;8788;49.930;8.660;2023-04-09T01:47:43;5.68;;;3.83;;
17340;SDS011;8788;49.930;8.660;2023-04-09T01:50:10;5.15;;;4.07;;
17340;SDS011;8788;49.930;8.660;2023-04-09T01:52:38;5.35;;;4.30;;
17340;SDS011;8788;49.930;8.660;2023-04-09T01:55:06;5.30;;;4.22;;
17340;SDS011;8788;49.930;8.660;2023-04-09T01:57:33;7.00;;;4.68;;
17340;SDS011;8788;49.930;8.660;2023-04-09T02:00:00;4.63;;;3.95;;
17340;SDS011;8788;49.930;8.660;2023-04-09T02:02:43;5.10;;;4.10;;
17340;SDS011;8788;49.930;8.660;2023-04-09T02:05:19;3.15;;;2.85;;
17340;SDS011;8788;49.930;8.660;2023-04-09T02:07:49;4.50;;;3.40;;
17340;SDS011;8788;49.930;8.660;2023-04-09T02:10:19;4.72;;;3.38;;
17340;SDS011;8788;49.930;8.660;2023-04-09T02:12:50;4.10;;;3.22;;
17340;SDS011;8788;49.930;8.660;2023-04-09T02:15:18;4.25;;;3.63;;
17340;SDS011;8788;49.930;8.660;2023-04-09T02:17:48;4.68;;;3.95;;
17340;SDS011;8788;49.930;8.660;2023-04-09T02:20:15;5.80;;;3.88;;
17340;SDS011;8788;49.930;8.660;2023-04-09T02:22:44;5.07;;;3.55;;
17340;SDS011;8788;49.930;8.660;2023-04-09T02:25:11;5.43;;;4.22;;
17340;SDS011;8788;49.930;8.660;2023-04-09T02:27:38;4.38;;;3.80;;
17340;SDS011;8788;49.930;8.660;2023-04-09T02:30:06;5.93;;;4.40;;
17340;SDS011;8788;49.930;8.660;2023-04-09T02:32:33;5.57;;;4.25;;
17340;SDS011;8788;49.930;8.660;2023-04-09T02:35:02;7.32;;;5.05;;
17340;SDS011;8788;49.930;8.660;2023-04-09T02:37:30;5.88;;;3.97;;
17340;SDS011;8788;49.930;8.660;2023-04-09T02:39:57;8.13;;;5.20;;
17340;SDS011;8788;49.930;8.660;2023-04-09T02:42:24;7.90;;;4.80;;
17340;SDS011;8788;49.930;8.660;2023-04-09T02:44:51;5.68;;;5.05;;
17340;SDS011;8788;49.930;8.660;2023-04-09T02:47:18;7.55;;;5.32;;
17340;SDS011;8788;49.930;8.660;2023-04-09T02:49:45;7.18;;;5.55;;
17340;SDS011;8788;49.930;8.660;2023-04-09T02:52:14;7.97;;;5.57;;
17340;SDS011;8788;49.930;8.660;2023-04-09T02:54:41;9.02;;;6.07;;
17340;SDS011;8788;49.930;8.660;2023-04-09T02:57:08;8.38;;;5.65;;
17340;SDS011;8788;49.930;8.660;2023-04-09T02:59:35;8.77;;;6.30;;
17340;SDS011;8788;49.930;8.660;2023-04-09T03:02:03;7.22;;;6.13;;
17340;SDS011;8788;49.930;8.660;2023-04-09T03:04:30;6.97;;;5.10;;
17340;SDS011;8788;49.930;8.660;2023-04-09T03:06:57;4.32;;;3.65;;
17340;SDS011;8788;49.930;8.660;2023-04-09T03:09:25;5.05;;;3.83;;
17340;SDS011;8788;49.930;8.660;2023-04-09T03:11:53;7.32;;;4.00;;
17340;SDS011;8788;49.930;8.660;2023-04-09T03:14:21;5.28;;;4.25;;
17340;SDS011;8788;49.930;8.660;2023-04-09T03:16:49;6.78;;;4.68;;
17340;SDS011;8788;49.930;8.660;2023-04-09T03:19:16;5.05;;;4.03;;
17340;SDS011;8788;49.930;8.660;2023-04-09T03:21:43;7.85;;;5.28;;
17340;SDS011;8788;49.930;8.660;2023-04-09T03:24:10;7.97;;;5.22;;
17340;SDS011;8788;49.930;8.660;2023-04-09T03:26:40;9.27;;;5.82;;
17340;SDS011;8788;49.930;8.660;2023-04-09T03:29:08;9.52;;;4.93;;
17340;SDS011;8788;49.930;8.660;2023-04-09T03:31:35;7.82;;;5.47;;
17340;SDS011;8788;49.930;8.660;2023-04-09T03:34:02;8.15;;;5.35;;
17340;SDS011;8788;49.930;8.660;2023-04-09T03:36:31;6.35;;;4.90;;
17340;SDS011;8788;49.930;8.660;2023-04-09T03:39:02;9.50;;;5.50;;
17340;SDS011;8788;49.930;8.660;2023-04-09T03:41:33;8.02;;;5.20;;
17340;SDS011;8788;49.930;8.660;2023-04-09T03:44:05;10.32;;;6.25;;
17340;SDS011;8788;49.930;8.660;2023-04-09T03:46:51;8.73;;;5.35;;
17340;SDS011;8788;49.930;8.660;2023-04-09T03:49:19;8.18;;;5.40;;
17340;SDS011;8788;49.930;8.660;2023-04-09T03:51:46;6.78;;;5.00;;
17340;SDS011;8788;49.930;8.660;2023-04-09T03:54:13;7.25;;;4.93;;
17340;SDS011;8788;49.930;8.660;2023-04-09T03:56:41;8.05;;;5.50;;
17340;SDS011;8788;49.930;8.660;2023-04-09T03:59:12;5.93;;;4.28;;
17340;SDS011;8788;49.930;8.660;2023-04-09T04:01:43;7.95;;;4.78;;
17340;SDS011;8788;49.930;8.660;2023-04-09T04:04:10;5.75;;;4.00;;
17340;SDS011;8788;49.930;8.660;2023-04-09T04:06:57;6.47;;;4.90;;
17340;SDS011;8788;49.930;8.660;2023-04-09T04:09:28;5.90;;;5.15;;
17340;SDS011;8788;49.930;8.660;2023-04-09T04:11:59;7.82;;;5.45;;
17340;SDS011;8788;49.930;8.660;2023-04-09T04:14:42;5.85;;;4.43;;
17340;SDS011;8788;49.930;8.660;2023-04-09T04:17:20;9.75;;;4.68;;
17340;SDS011;8788;49.930;8.660;2023-04-09T04:19:49;6.63;;;5.20;;
17340;SDS011;8788;49.930;8.660;2023-04-09T04:22:16;6.70;;;4.55;;
17340;SDS011;8788;49.930;8.660;2023-04-09T04:24:46;5.75;;;4.57;;
17340;SDS011;8788;49.930;8.660;2023-04-09T04:27:18;5.18;;;4.00;;
17340;SDS011;8788;49.930;8.660;2023-04-09T04:29:47;7.18;;;4.85;;
17340;SDS011;8788;49.930;8.660;2023-04-09T04:32:35;4.95;;;4.45;;
17340;SDS011;8788;49.930;8.660;2023-04-09T04:35:07;6.47;;;4.22;;
17340;SDS011;8788;49.930;8.660;2023-04-09T04:37:35;6.90;;;5.00;;
17340;SDS011;8788;49.930;8.660;2023-04-09T04:40:02;7.95;;;4.78;;
17340;SDS011;8788;49.930;8.660;2023-04-09T04:42:32;7.10;;;3.88;;
17340;SDS011;8788;49.930;8.660;2023-04-09T04:45:09;6.95;;;4.43;;
17340;SDS011;8788;49.930;8.660;2023-04-09T04:47:42;5.88;;;4.35;;
17340;SDS011;8788;49.930;8.660;2023-04-09T04:50:09;6.35;;;4.50;;
17340;SDS011;8788;49.930;8.660;2023-04-09T04:53:02;7.25;;;5.05;;
17340;SDS011;8788;49.930;8.660;2023-04-09T04:55:36;5.38;;;4.32;;
17340;SDS011;8788;49.930;8.660;2023-04-09T04:58:05;5.57;;;4.32;;
17340;SDS011;8788;49.930;8.660;2023-04-09T05:00:42;6.75;;;4.80;;
17340;SDS011;8788;49.930;8.660;2023-04-09T05:03:09;5.53;;;4.35;;
17340;SDS011;8788;49.930;8.660;2023-04-09T05:05:54;6.55;;;4.07;;
17340;SDS011;8788;49.930;8.660;2023-04-09T05:08:24;6.43;;;4.80;;
17340;SDS011;8788;49.930;8.660;2023-04-09T05:10:53;5.68;;;4.05;;
17340;SDS011;8788;49.930;8.660;2023-04-09T05:13:24;4.57;;;3.92;;
17340;SDS011;8788;49.930;8.660;2023-04-09T05:15:52;5.55;;;3.78;;
17340;SDS011;8788;49.930;8.660;2023-04-09T05:18:20;4.70;;;3.75;;
17340;SDS011;8788;49.930;8.660;2023-04-09T05:20:47;4.65;;;3.83;;
17340;SDS011;8788;49.930;8.660;2023-04-09T05:23:15;7.93;;;4.78;;
17340;SDS011;8788;49.930;8.660;2023-04-09T05:25:47;5.60;;;4.53;;
17340;SDS011;8788;49.930;8.660;2023-04-09T05:28:28;7.50;;;4.82;;
17340;SDS011;8788;49.930;8.660;2023-04-09T05:31:06;9.13;;;5.22;;
17340;SDS011;8788;49.930;8.660;2023-04-09T05:33:39;7.05;;;4.88;;
17340;SDS011;8788;49.930;8.660;2023-04-09T05:36:14;8.35;;;5.47;;
17340;SDS011;8788;49.930;8.660;2023-04-09T05:38:42;8.35;;;5.18;;
17340;SDS011;8788;49.930;8.660;2023-04-09T05:41:09;7.55;;;5.25;;
17340;SDS011;8788;49.930;8.660;2023-04-09T05:43:46;9.13;;;5.55;;
17340;SDS011;8788;49.930;8.660;2023-04-09T05:46:14;10.57;;;6.35;;
17340;SDS011;8788;49.930;8.660;2023-04-09T05:48:42;9.10;;;6.35;;
17340;SDS011;8788;49.930;8.660;2023-04-09T05:51:10;10.05;;;6.45;;
17340;SDS011;8788;49.930;8.660;2023-04-09T05:53:37;11.52;;;6.68;;
17340;SDS011;8788;49.930;8.660;2023-04-09T05:56:11;10.30;;;5.93;;
17340;SDS011;8788;49.930;8.660;2023-04-09T05:58:45;9.25;;;5.72;;
17340;SDS011;8788;49.930;8.660;2023-04-09T06:01:12;10.10;;;6.18;;
17340;SDS011;8788;49.930;8.660;2023-04-09T06:03:41;7.80;;;5.97;;
17340;SDS011;8788;49.930;8.660;2023-04-09T06:06:09;8.98;;;6.07;;
17340;SDS011;8788;49.930;8.660;2023-04-09T06:08:36;9.30;;;6.32;;
17340;SDS011;8788;49.930;8.660;2023-04-09T06:11:05;9.68;;;6.43;;
17340;SDS011;8788;49.930;8.660;2023-04-09T06:13:34;9.85;;;6.90;;
17340;SDS011;8788;49.930;8.660;2023-04-09T06:16:02;11.00;;;7.68;;
17340;SDS011;8788;49.930;8.660;2023-04-09T06:18:31;13.52;;;7.93;;
17340;SDS011;8788;49.930;8.660;2023-04-09T06:21:01;9.90;;;7.45;;
17340;SDS011;8788;49.930;8.660;2023-04-09T06:23:29;10.57;;;6.47;;
17340;SDS011;8788;49.930;8.660;2023-04-09T06:25:56;11.13;;;7.63;;
17340;SDS011;8788;49.930;8.660;2023-04-09T06:28:23;12.27;;;7.47;;
17340;SDS011;8788;49.930;8.660;2023-04-09T06:30:50;8.07;;;5.78;;
17340;SDS011;8788;49.930;8.660;2023-04-09T06:33:19;10.10;;;6.75;;
17340;SDS011;8788;49.930;8.660;2023-04-09T06:35:48;10.68;;;7.30;;
17340;SDS011;8788;49.930;8.660;2023-04-09T06:38:15;12.38;;;8.60;;
17340;SDS011;8788;49.930;8.660;2023-04-09T06:40:42;11.27;;;7.40;;
17340;SDS011;8788;49.930;8.660;2023-04-09T06:43:09;10.32;;;7.07;;
17340;SDS011;8788;49.930;8.660;2023-04-09T06:45:50;10.27;;;6.82;;
17340;SDS011;8788;49.930;8.660;2023-04-09T06:48:17;11.18;;;7.47;;
17340;SDS011;8788;49.930;8.660;2023-04-09T06:50:44;10.40;;;7.05;;
17340;SDS011;8788;49.930;8.660;2023-04-09T06:53:13;8.63;;;7.13;;
17340;SDS011;8788;49.930;8.660;2023-04-09T06:55:40;10.82;;;7.65;;
17340;SDS011;8788;49.930;8.660;2023-04-09T06:58:07;11.77;;;7.72;;
17340;SDS011;8788;49.930;8.660;2023-04-09T07:00:35;10.15;;;7.50;;
17340;SDS011;8788;49.930;8.660;2023-04-09T07:03:02;9.80;;;7.57;;
17340;SDS011;8788;49.930;8.660;2023-04-09T07:05:29;9.70;;;7.43;;
17340;SDS011;8788;49.930;8.660;2023-04-09T07:07:57;17.00;;;7.63;;
17340;SDS011;8788;49.930;8.660;2023-04-09T07:10:25;12.10;;;8.40;;
17340;SDS011;8788;49.930;8.660;2023-04-09T07:12:53;12.18;;;8.27;;
17340;SDS011;8788;49.930;8.660;2023-04-09T07:15:20;11.57;;;8.77;;
17340;SDS011;8788;49.930;8.660;2023-04-09T07:17:47;11.60;;;8.85;;
17340;SDS011;8788;49.930;8.660;2023-04-09T07:20:14;10.95;;;8.70;;
17340;SDS011;8788;49.930;8.660;2023-04-09T07:22:41;9.80;;;7.88;;
17340;SDS011;8788;49.930;8.660;2023-04-09T07:25:08;10.90;;;8.10;;
17340;SDS011;8788;49.930;8.660;2023-04-09T07:27:37;13.00;;;8.60;;
17340;SDS011;8788;49.930;8.660;2023-04-09T07:30:04;11.15;;;8.20;;
17340;SDS011;8788;49.930;8.660;2023-04-09T07:32:32;9.82;;;8.18;;
17340;SDS011;8788;49.930;8.660;2023-04-09T07:34:59;11.23;;;8.48;;
17340;SDS011;8788;49.930;8.660;2023-04-09T07:37:29;11.85;;;8.60;;
17340;SDS011;8788;49.930;8.660;2023-04-09T07:39:56;13.15;;;9.30;;
17340;SDS011;8788;49.930;8.660;2023-04-09T07:42:23;15.05;;;9.55;;
17340;SDS011;8788;49.930;8.660;2023-04-09T07:44:52;11.43;;;9.50;;
17340;SDS011;8788;49.930;8.660;2023-04-09T07:47:21;15.25;;;9.80;;
17340;SDS011;8788;49.930;8.660;2023-04-09T07:49:48;11.85;;;10.25;;
17340;SDS011;8788;49.930;8.660;2023-04-09T07:52:15;12.15;;;8.85;;
17340;SDS011;8788;49.930;8.660;2023-04-09T07:54:43;10.75;;;9.60;;
17340;SDS011;8788;49.930;8.660;2023-04-09T07:57:10;14.15;;;9.95;;
17340;SDS011;8788;49.930;8.660;2023-04-09T07:59:37;16.05;;;10.48;;
17340;SDS011;8788;49.930;8.660;2023-04-09T08:02:06;14.30;;;11.48;;
17340;SDS011;8788;49.930;8.660;2023-04-09T08:04:33;16.20;;;10.82;;
17340;SDS011;8788;49.930;8.660;2023-04-09T08:07:00;15.00;;;12.25;;
17340;SDS011;8788;49.930;8.660;2023-04-09T08:09:27;15.38;;;11.45;;
17340;SDS011;8788;49.930;8.660;2023-04-09T08:11:54;15.30;;;10.68;;
17340;SDS011;8788;49.930;8.660;2023-04-09T08:14:22;16.50;;;11.25;;
17340;SDS011;8788;49.930;8.660;2023-04-09T08:16:49;12.82;;;10.05;;
17340;SDS011;8788;49.930;8.660;2023-04-09T08:19:17;14.30;;;10.65;;
17340;SDS011;8788;49.930;8.660;2023-04-09T08:21:45;14.70;;;10.70;;
17340;SDS011;8788;49.930;8.660;2023-04-09T08:24:13;14.50;;;11.30;;
17340;SDS011;8788;49.930;8.660;2023-04-09T08:26:40;14.32;;;10.77;;
17340;SDS011;8788;49.930;8.660;2023-04-09T08:29:08;14.10;;;10.65;;
17340;SDS011;8788;49.930;8.660;2023-04-09T08:31:37;15.85;;;10.82;;
17340;SDS011;8788;49.930;8.660;2023-04-09T08:34:04;14.80;;;11.25;;
17340;SDS011;8788;49.930;8.660;2023-04-09T08:36:33;14.13;;;11.52;;
17340;SDS011;8788;49.930;8.660;2023-04-09T08:39:00;15.57;;;11.25;;
17340;SDS011;8788;49.930;8.660;2023-04-09T08:41:27;14.25;;;10.73;;
17340;SDS011;8788;49.930;8.660;2023-04-09T08:43:55;14.23;;;10.85;;
17340;SDS011;8788;49.930;8.660;2023-04-09T08:46:23;16.27;;;11.82;;
17340;SDS011;8788;49.930;8.660;2023-04-09T08:48:50;13.43;;;10.60;;
17340;SDS011;8788;49.930;8.660;2023-04-09T08:51:18;13.70;;;11.05;;
17340;SDS011;8788;49.930;8.660;2023-04-09T08:53:48;16.85;;;11.55;;
17340;SDS011;8788;49.930;8.660;2023-04-09T08:56:21;14.10;;;11.02;;
17340;SDS011;8788;49.930;8.660;2023-04-09T08:58:49;13.48;;;10.20;;
17340;SDS011;8788;49.930;8.660;2023-04-09T09:01:24;12.52;;;9.50;;
17340;SDS011;8788;49.930;8.660;2023-04-09T09:03:52;14.35;;;11.38;;
17340;SDS011;8788;49.930;8.660;2023-04-09T09:06:21;13.40;;;10.45;;
17340;SDS011;8788;49.930;8.660;2023-04-09T09:09:00;12.82;;;9.98;;
17340;SDS011;8788;49.930;8.660;2023-04-09T09:11:29;14.38;;;10.30;;
17340;SDS011;8788;49.930;8.660;2023-04-09T09:13:56;12.90;;;9.50;;
17340;SDS011;8788;49.930;8.660;2023-04-09T09:16:24;12.27;;;8.27;;
17340;SDS011;8788;49.930;8.660;2023-04-09T09:18:51;11.02;;;9.70;;
17340;SDS011;8788;49.930;8.660;2023-04-09T09:21:20;11.05;;;8.82;;
17340;SDS011;8788;49.930;8.660;2023-04-09T09:23:47;11.35;;;9.20;;
17340;SDS011;8788;49.930;8.660;2023-04-09T09:26:17;10.75;;;8.75;;
17340;SDS011;8788;49.930;8.660;2023-04-09T09:28:46;9.63;;;7.25;;
17340;SDS011;8788;49.930;8.660;2023-04-09T09:31:14;10.98;;;8.32;;
17340;SDS011;8788;49.930;8.660;2023-04-09T09:33:43;10.38;;;8.07;;
17340;SDS011;8788;49.930;8.660;2023-04-09T09:36:10;11.02;;;8.80;;
17340;SDS011;8788;49.930;8.660;2023-04-09T09:38:51;11.60;;;8.15;;
17340;SDS011;8788;49.930;8.660;2023-04-09T09:41:21;9.32;;;8.30;;
17340;SDS011;8788;49.930;8.660;2023-04-09T09:43:48;10.52;;;8.30;;
17340;SDS011;8788;49.930;8.660;2023-04-09T09:46:16;10.60;;;7.78;;
17340;SDS011;8788;49.930;8.660;2023-04-09T09:48:43;10.98;;;8.38;;
17340;SDS011;8788;49.930;8.660;2023-04-09T09:51:12;10.43;;;8.32;;
17340;SDS011;8788;49.930;8.660;2023-04-09T09:53:40;10.20;;;8.63;;
17340;SDS011;8788;49.930;8.660;2023-04-09T09:56:10;11.45;;;8.60;;
17340;SDS011;8788;49.930;8.660;2023-04-09T09:58:44;9.75;;;8.40;;
17340;SDS011;8788;49.930;8.660;2023-04-09T10:01:16;10.40;;;8.85;;
17340;SDS011;8788;49.930;8.660;2023-04-09T10:03:45;9.88;;;8.38;;
17340;SDS011;8788;49.930;8.660;2023-04-09T10:06:15;7.60;;;6.22;;
17340;SDS011;8788;49.930;8.660;2023-04-09T10:08:42;8.70;;;7.40;;
17340;SDS011;8788;49.930;8.660;2023-04-09T10:11:11;8.77;;;6.88;;
17340;SDS011;8788;49.930;8.660;2023-04-09T10:13:39;7.35;;;6.53;;
17340;SDS011;8788;49.930;8.660;2023-04-09T10:16:13;10.18;;;7.13;;
17340;SDS011;8788;49.930;8.660;2023-04-09T10:18:41;8.20;;;7.05;;
17340;SDS011;8788;49.930;8.660;2023-04-09T10:21:11;7.55;;;6.18;;
17340;SDS011;8788;49.930;8.660;2023-04-09T10:23:44;8.90;;;6.95;;
17340;SDS011;8788;49.930;8.660;2023-04-09T10:26:15;9.43;;;7.55;;
17340;SDS011;8788;49.930;8.660;2023-04-09T10:28:44;6.53;;;5.78;;
17340;SDS011;8788;49.930;8.660;2023-04-09T10:31:12;7.50;;;5.90;;
17340;SDS011;8788;49.930;8.660;2023-04-09T10:33:39;6.60;;;5.68;;
17340;SDS011;8788;49.930;8.660;2023-04-09T10:36:10;6.32;;;5.03;;
17340;SDS011;8788;49.930;8.660;2023-04-09T10:38:39;7.10;;;5.13;;
17340;SDS011;8788;49.930;8.660;2023-04-09T10:41:14;6.35;;;4.50;;
17340;SDS011;8788;49.930;8.660;2023-04-09T10:43:46;5.60;;;4.63;;
17340;SDS011;8788;49.930;8.660;2023-04-09T10:46:28;7.13;;;4.95;;
17340;SDS011;8788;49.930;8.660;2023-04-09T10:49:09;6.30;;;5.15;;
17340;SDS011;8788;49.930;8.660;2023-04-09T10:51:38;6.85;;;5.60;;
17340;SDS011;8788;49.930;8.660;2023-04-09T10:54:05;5.18;;;4.78;;
17340;SDS011;8788;49.930;8.660;2023-04-09T10:59:47;6.40;;;4.63;;
17340;SDS011;8788;49.930;8.660;2023-04-09T11:05:18;4.78;;;4.05;;
17340;SDS011;8788;49.930;8.660;2023-04-09T11:08:00;4.05;;;3.72;;
17340;SDS011;8788;49.930;8.660;2023-04-09T11:10:30;3.45;;;3.15;;
17340;SDS011;8788;49.930;8.660;2023-04-09T11:12:59;4.05;;;3.65;;
17340;SDS011;8788;49.930;8.660;2023-04-09T11:15:26;3.70;;;3.40;;
17340;SDS011;8788;49.930;8.660;2023-04-09T11:17:53;5.25;;;3.60;;
17340;SDS011;8788;49.930;8.660;2023-04-09T11:20:22;3.58;;;3.17;;
17340;SDS011;8788;49.930;8.660;2023-04-09T11:22:51;4.03;;;3.67;;
17340;SDS011;8788;49.930;8.660;2023-04-09T11:25:19;4.70;;;4.20;;
17340;SDS011;8788;49.930;8.660;2023-04-09T11:27:47;5.53;;;5.00;;
17340;SDS011;8788;49.930;8.660;2023-04-09T11:30:16;4.78;;;4.28;;
17340;SDS011;8788;49.930;8.660;2023-04-09T11:32:43;5.45;;;4.93;;
17340;SDS011;8788;49.930;8.660;2023-04-09T11:35:11;5.13;;;4.15;;
17340;SDS011;8788;49.930;8.660;2023-04-09T11:37:39;5.63;;;4.97;;
17340;SDS011;8788;49.930;8.660;2023-04-09T11:40:08;5.93;;;5.32;;
17340;SDS011;8788;49.930;8.660;2023-04-09T11:42:44;5.50;;;4.88;;
17340;SDS011;8788;49.930;8.660;2023-04-09T11:45:14;4.88;;;4.38;;
17340;SDS011;8788;49.930;8.660;2023-04-09T11:47:43;5.22;;;4.20;;
17340;SDS011;8788;49.930;8.660;2023-04-09T11:50:12;4.80;;;4.38;;
17340;SDS011;8788;49.930;8.660;2023-04-09T11:52:41;6.22;;;5.18;;
17340;SDS011;8788;49.930;8.660;2023-04-09T11:55:08;4.70;;;4.10;;
17340;SDS011;8788;49.930;8.660;2023-04-09T11:57:38;5.00;;;4.38;;
17340;SDS011;8788;49.930;8.660;2023-04-09T12:00:08;4.90;;;4.50;;
17340;SDS011;8788;49.930;8.660;2023-04-09T12:02:40;5.30;;;4.80;;
17340;SDS011;8788;49.930;8.660;2023-04-09T12:05:08;4.97;;;4.47;;
17340;SDS011;8788;49.930;8.660;2023-04-09T12:07:36;3.95;;;3.50;;
17340;SDS011;8788;49.930;8.660;2023-04-09T12:10:04;5.55;;;3.80;;
17340;SDS011;8788;49.930;8.660;2023-04-09T12:12:38;4.13;;;3.80;;
17340;SDS011;8788;49.930;8.660;2023-04-09T12:15:09;5.07;;;3.88;;
17340;SDS011;8788;49.930;8.660;2023-04-09T12:17:52;4.07;;;3.67;;
17340;SDS011;8788;49.930;8.660;2023-04-09T12:20:27;4.40;;;3.70;;
17340;SDS011;8788;49.930;8.660;2023-04-09T12:22:55;3.90;;;3.53;;
17340;SDS011;8788;49.930;8.660;2023-04-09T12:25:24;4.35;;;3.78;;
17340;SDS011;8788;49.930;8.660;2023-04-09T12:27:51;4.43;;;3.83;;
17340;SDS011;8788;49.930;8.660;2023-04-09T12:30:19;4.88;;;4.28;;
17340;SDS011;8788;49.930;8.660;2023-04-09T12:32:47;5.10;;;4.30;;
17340;SDS011;8788;49.930;8.660;2023-04-09T12:35:15;9.75;;;4.45;;
17340;SDS011;8788;49.930;8.660;2023-04-09T12:37:42;4.97;;;3.95;;
17340;SDS011;8788;49.930;8.660;2023-04-09T12:40:10;3.83;;;3.53;;
17340;SDS011;8788;49.930;8.660;2023-04-09T12:42:38;4.72;;;3.97;;
17340;SDS011;8788;49.930;8.660;2023-04-09T12:45:06;5.10;;;4.30;;
17340;SDS011;8788;49.930;8.660;2023-04-09T12:47:34;5.43;;;4.22;;
17340;SDS011;8788;49.930;8.660;2023-04-09T12:50:01;5.57;;;4.50;;
17340;SDS011;8788;49.930;8.660;2023-04-09T12:52:30;5.05;;;4.53;;
17340;SDS011;8788;49.930;8.660;2023-04-09T12:54:57;4.72;;;3.85;;
17340;SDS011;8788;49.930;8.660;2023-04-09T12:57:24;5.28;;;4.10;;
17340;SDS011;8788;49.930;8.660;2023-04-09T12:59:51;4.20;;;3.80;;
17340;SDS011;8788;49.930;8.660;2023-04-09T13:02:18;5.35;;;4.25;;
17340;SDS011;8788;49.930;8.660;2023-04-09T13:04:46;4.78;;;3.83;;
17340;SDS011;8788;49.930;8.660;2023-04-09T13:07:14;5.15;;;4.30;;
17340;SDS011;8788;49.930;8.660;2023-04-09T13:09:43;4.70;;;4.10;;
17340;SDS011;8788;49.930;8.660;2023-04-09T13:12:12;5.28;;;4.22;;
17340;SDS011;8788;49.930;8.660;2023-04-09T13:14:39;4.28;;;3.80;;
17340;SDS011;8788;49.930;8.660;2023-04-09T13:17:07;4.07;;;3.65;;
17340;SDS011;8788;49.930;8.660;2023-04-09T13:19:34;3.97;;;3.67;;
17340;SDS011;8788;49.930;8.660;2023-04-09T13:22:01;4.45;;;3.75;;
17340;SDS011;8788;49.930;8.660;2023-04-09T13:24:30;4.80;;;3.97;;
17340;SDS011;8788;49.930;8.660;2023-04-09T13:26:58;4.15;;;3.75;;
17340;SDS011;8788;49.930;8.660;2023-04-09T13:29:26;4.70;;;3.83;;
17340;SDS011;8788;49.930;8.660;2023-04-09T13:31:53;4.57;;;4.15;;
17340;SDS011;8788;49.930;8.660;2023-04-09T13:34:21;4.38;;;4.00;;
17340;SDS011;8788;49.930;8.660;2023-04-09T13:36:49;4.97;;;4.30;;
17340;SDS011;8788;49.930;8.660;2023-04-09T13:39:16;4.72;;;4.18;;
17340;SDS011;8788;49.930;8.660;2023-04-09T13:41:43;4.57;;;4.10;;
17340;SDS011;8788;49.930;8.660;2023-04-09T13:44:11;4.68;;;4.18;;
17340;SDS011;8788;49.930;8.660;2023-04-09T13:46:38;4.72;;;3.88;;
17340;SDS011;8788;49.930;8.660;2023-04-09T13:49:05;3.80;;;3.40;;
17340;SDS011;8788;49.930;8.660;2023-04-09T13:51:32;4.30;;;3.30;;
17340;SDS011;8788;49.930;8.660;2023-04-09T13:54:00;4.32;;;3.80;;
17340;SDS011;8788;49.930;8.660;2023-04-09T13:56:28;3.78;;;3.10;;
17340;SDS011;8788;49.930;8.660;2023-04-09T13:58:56;3.90;;;3.50;;
17340;SDS011;8788;49.930;8.660;2023-04-09T14:01:24;4.20;;;3.80;;
17340;SDS011;8788;49.930;8.660;2023-04-09T14:03:52;3.50;;;3.20;;
17340;SDS011;8788;49.930;8.660;2023-04-09T14:06:19;4.03;;;3.42;;
17340;SDS011;8788;49.930;8.660;2023-04-09T14:08:47;3.35;;;3.05;;
17340;SDS011;8788;49.930;8.660;2023-04-09T14:11:14;4.55;;;3.40;;
17340;SDS011;8788;49.930;8.660;2023-04-09T14:13:41;4.10;;;3.67;;
17340;SDS011;8788;49.930;8.660;2023-04-09T14:16:08;4.20;;;3.50;;
17340;SDS011;8788;49.930;8.660;2023-04-09T14:18:36;3.35;;;3.05;;
17340;SDS011;8788;49.930;8.660;2023-04-09T14:21:04;4.10;;;3.70;;
17340;SDS011;8788;49.930;8.660;2023-04-09T14:23:32;4.32;;;3.55;;
17340;SDS011;8788;49.930;8.660;2023-04-09T14:25:59;3.33;;;3.03;;
17340;SDS011;8788;49.930;8.660;2023-04-09T14:28:27;2.72;;;2.53;;
17340;SDS011;8788;49.930;8.660;2023-04-09T14:30:54;3.22;;;2.92;;
17340;SDS011;8788;49.930;8.660;2023-04-09T14:33:21;4.43;;;3.00;;
17340;SDS011;8788;49.930;8.660;2023-04-09T14:35:50;3.35;;;2.80;;
17340;SDS011;8788;49.930;8.660;2023-04-09T14:38:17;3.20;;;2.95;;
17340;SDS011;8788;49.930;8.660;2023-04-09T14:40:44;3.15;;;2.85;;
17340;SDS011;8788;49.930;8.660;2023-04-09T14:43:11;3.00;;;2.70;;
17340;SDS011;8788;49.930;8.660;2023-04-09T14:45:38;3.00;;;2.70;;
17340;SDS011;8788;49.930;8.660;2023-04-09T14:48:05;3.20;;;2.90;;
17340;SDS011;8788;49.930;8.660;2023-04-09T14:50:33;3.33;;;3.03;;
17340;SDS011;8788;49.930;8.660;2023-04-09T14:53:02;3.53;;;3.22;;
17340;SDS011;8788;49.930;8.660;2023-04-09T14:55:29;3.45;;;2.90;;
17340;SDS011;8788;49.930;8.660;2023-04-09T14:57:57;2.63;;;2.42;;
17340;SDS011;8788;49.930;8.660;2023-04-09T15:00:25;3.53;;;3.22;;
17340;SDS011;8788;49.930;8.660;2023-04-09T15:02:52;3.35;;;3.00;;
17340;SDS011;8788;49.930;8.660;2023-04-09T15:05:20;3.03;;;2.75;;
17340;SDS011;8788;49.930;8.660;2023-04-09T15:07:47;2.88;;;2.60;;
17340;SDS011;8788;49.930;8.660;2023-04-09T15:10:16;2.88;;;2.45;;
17340;SDS011;8788;49.930;8.660;2023-04-09T15:12:43;2.60;;;2.40;;
17340;SDS011;8788;49.930;8.660;2023-04-09T15:15:10;2.70;;;2.50;;